sensor_id;sensor_type;location;lat;lon;timestamp;P1;durP1;ratioP1;P2;durP2;ratioP2
48578;SDS011;34357;51.948;6.132;2022-12-20T00:00:44;3.40;;;2.33;;
48578;SDS011;34357;51.948;6.132;2022-12-20T00:03:10;5.55;;;2.53;;
48578;SDS011;34357;51.948;6.132;2022-12-20T00:05:36;4.65;;;2.45;;
48578;SDS011;34357;51.948;6.132;2022-12-20T00:08:02;5.70;;;2.20;;
48578;SDS011;34357;51.948;6.132;2022-12-20T00:10:28;4.93;;;2.30;;
48578;SDS011;34357;51.948;6.132;2022-12-20T00:12:53;2.67;;;2.30;;
48578;SDS011;34357;51.948;6.132;2022-12-20T00:15:19;4.75;;;2.17;;
48578;SDS011;34357;51.948;6.132;2022-12-20T00:17:45;5.38;;;2.20;;
48578;SDS011;34357;51.948;6.132;2022-12-20T00:20:11;3.72;;;2.50;;
48578;SDS011;34357;51.948;6.132;2022-12-20T00:22:36;3.50;;;2.10;;
48578;SDS011;34357;51.948;6.132;2022-12-20T00:25:03;4.13;;;2.38;;
48578;SDS011;34357;51.948;6.132;2022-12-20T00:27:29;3.33;;;2.25;;
48578;SDS011;34357;51.948;6.132;2022-12-20T00:29:55;4.32;;;2.22;;
48578;SDS011;34357;51.948;6.132;2022-12-20T00:32:20;4.45;;;2.05;;
48578;SDS011;34357;51.948;6.132;2022-12-20T00:34:46;5.05;;;2.30;;
48578;SDS011;34357;51.948;6.132;2022-12-20T00:37:12;4.30;;;2.15;;
48578;SDS011;34357;51.948;6.132;2022-12-20T00:39:38;5.35;;;2.30;;
48578;SDS011;34357;51.948;6.132;2022-12-20T00:42:03;3.60;;;1.88;;
48578;SDS011;34357;51.948;6.132;2022-12-20T00:44:29;4.32;;;2.25;;
48578;SDS011;34357;51.948;6.132;2022-12-20T00:46:55;4.10;;;2.20;;
48578;SDS011;34357;51.948;6.132;2022-12-20T00:49:21;4.75;;;1.83;;
48578;SDS011;34357;51.948;6.132;2022-12-20T00:51:47;4.85;;;2.17;;
48578;SDS011;34357;51.948;6.132;2022-12-20T00:54:12;5.13;;;2.25;;
48578;SDS011;34357;51.948;6.132;2022-12-20T00:56:38;3.97;;;1.88;;
48578;SDS011;34357;51.948;6.132;2022-12-20T00:59:04;4.40;;;1.77;;
48578;SDS011;34357;51.948;6.132;2022-12-20T01:01:30;3.42;;;2.15;;
48578;SDS011;34357;51.948;6.132;2022-12-20T01:03:58;3.72;;;2.03;;
48578;SDS011;34357;51.948;6.132;2022-12-20T01:06:25;5.15;;;1.75;;
48578;SDS011;34357;51.948;6.132;2022-12-20T01:08:51;6.05;;;2.08;;
48578;SDS011;34357;51.948;6.132;2022-12-20T01:11:19;6.30;;;2.30;;
48578;SDS011;34357;51.948;6.132;2022-12-20T01:13:48;3.28;;;1.90;;
48578;SDS011;34357;51.948;6.132;2022-12-20T01:16:17;4.00;;;2.13;;
48578;SDS011;34357;51.948;6.132;2022-12-20T01:18:48;2.63;;;1.88;;
48578;SDS011;34357;51.948;6.132;2022-12-20T01:21:15;2.90;;;1.83;;
48578;SDS011;34357;51.948;6.132;2022-12-20T01:23:42;3.60;;;2.10;;
48578;SDS011;34357;51.948;6.132;2022-12-20T01:26:11;3.40;;;1.80;;
48578;SDS011;34357;51.948;6.132;2022-12-20T01:28:40;7.07;;;1.85;;
48578;SDS011;34357;51.948;6.132;2022-12-20T01:31:08;4.40;;;1.60;;
48578;SDS011;34357;51.948;6.132;2022-12-20T01:33:35;2.70;;;1.90;;
48578;SDS011;34357;51.948;6.132;2022-12-20T01:36:05;4.85;;;1.70;;
48578;SDS011;34357;51.948;6.132;2022-12-20T01:38:42;6.03;;;2.08;;
48578;SDS011;34357;51.948;6.132;2022-12-20T01:41:08;2.95;;;1.70;;
48578;SDS011;34357;51.948;6.132;2022-12-20T01:46:26;3.42;;;1.70;;
48578;SDS011;34357;51.948;6.132;2022-12-20T01:51:28;4.88;;;2.10;;
48578;SDS011;34357;51.948;6.132;2022-12-20T01:53:57;4.15;;;1.88;;
48578;SDS011;34357;51.948;6.132;2022-12-20T01:56:28;5.35;;;2.08;;
48578;SDS011;34357;51.948;6.132;2022-12-20T01:58:53;2.22;;;1.88;;
48578;SDS011;34357;51.948;6.132;2022-12-20T02:01:22;3.45;;;2.20;;
48578;SDS011;34357;51.948;6.132;2022-12-20T02:03:48;4.55;;;2.10;;
48578;SDS011;34357;51.948;6.132;2022-12-20T02:06:17;4.85;;;2.35;;
48578;SDS011;34357;51.948;6.132;2022-12-20T02:08:45;4.45;;;3.05;;
48578;SDS011;34357;51.948;6.132;2022-12-20T02:16:49;5.50;;;2.78;;
48578;SDS011;34357;51.948;6.132;2022-12-20T02:22:26;7.43;;;3.00;;
48578;SDS011;34357;51.948;6.132;2022-12-20T02:25:17;5.45;;;2.97;;
48578;SDS011;34357;51.948;6.132;2022-12-20T02:28:44;4.47;;;3.13;;
48578;SDS011;34357;51.948;6.132;2022-12-20T02:31:02;4.47;;;2.67;;
48578;SDS011;34357;51.948;6.132;2022-12-20T02:33:32;7.78;;;3.75;;
48578;SDS011;34357;51.948;6.132;2022-12-20T02:35:58;5.43;;;3.25;;
48578;SDS011;34357;51.948;6.132;2022-12-20T02:38:25;6.65;;;4.20;;
48578;SDS011;34357;51.948;6.132;2022-12-20T02:41:06;6.20;;;3.80;;
48578;SDS011;34357;51.948;6.132;2022-12-20T02:43:57;6.18;;;4.00;;
48578;SDS011;34357;51.948;6.132;2022-12-20T02:46:45;7.85;;;4.90;;
48578;SDS011;34357;51.948;6.132;2022-12-20T02:49:13;6.55;;;4.70;;
48578;SDS011;34357;51.948;6.132;2022-12-20T02:51:43;6.15;;;4.32;;
48578;SDS011;34357;51.948;6.132;2022-12-20T02:54:12;6.97;;;4.32;;
48578;SDS011;34357;51.948;6.132;2022-12-20T02:56:42;8.38;;;4.53;;
48578;SDS011;34357;51.948;6.132;2022-12-20T02:59:26;6.95;;;4.75;;
48578;SDS011;34357;51.948;6.132;2022-12-20T03:01:56;8.52;;;5.05;;
48578;SDS011;34357;51.948;6.132;2022-12-20T03:04:23;8.38;;;5.10;;
48578;SDS011;34357;51.948;6.132;2022-12-20T03:06:59;9.27;;;5.03;;
48578;SDS011;34357;51.948;6.132;2022-12-20T03:09:25;8.48;;;5.10;;
48578;SDS011;34357;51.948;6.132;2022-12-20T03:11:51;6.88;;;5.00;;
48578;SDS011;34357;51.948;6.132;2022-12-20T03:14:18;8.82;;;5.10;;
48578;SDS011;34357;51.948;6.132;2022-12-20T03:16:44;7.68;;;4.80;;
48578;SDS011;34357;51.948;6.132;2022-12-20T03:19:10;6.50;;;4.28;;
48578;SDS011;34357;51.948;6.132;2022-12-20T03:21:36;9.95;;;4.90;;
48578;SDS011;34357;51.948;6.132;2022-12-20T03:24:02;5.95;;;4.63;;
48578;SDS011;34357;51.948;6.132;2022-12-20T03:26:28;9.82;;;4.72;;
48578;SDS011;34357;51.948;6.132;2022-12-20T03:28:57;6.65;;;4.60;;
48578;SDS011;34357;51.948;6.132;2022-12-20T03:31:25;10.30;;;4.65;;
48578;SDS011;34357;51.948;6.132;2022-12-20T03:33:53;7.35;;;4.32;;
48578;SDS011;34357;51.948;6.132;2022-12-20T03:36:19;6.60;;;4.15;;
48578;SDS011;34357;51.948;6.132;2022-12-20T03:38:50;6.45;;;4.07;;
48578;SDS011;34357;51.948;6.132;2022-12-20T03:41:16;6.18;;;3.92;;
48578;SDS011;34357;51.948;6.132;2022-12-20T03:43:43;5.72;;;4.00;;
48578;SDS011;34357;51.948;6.132;2022-12-20T03:46:09;6.00;;;4.03;;
48578;SDS011;34357;51.948;6.132;2022-12-20T03:48:36;9.30;;;4.72;;
48578;SDS011;34357;51.948;6.132;2022-12-20T03:51:03;5.70;;;3.45;;
48578;SDS011;34357;51.948;6.132;2022-12-20T03:53:28;4.35;;;3.42;;
48578;SDS011;34357;51.948;6.132;2022-12-20T03:55:54;5.40;;;3.17;;
48578;SDS011;34357;51.948;6.132;2022-12-20T03:58:21;5.28;;;3.03;;
48578;SDS011;34357;51.948;6.132;2022-12-20T04:00:47;6.20;;;3.47;;
48578;SDS011;34357;51.948;6.132;2022-12-20T04:03:34;5.90;;;3.05;;
48578;SDS011;34357;51.948;6.132;2022-12-20T04:05:59;8.05;;;3.35;;
48578;SDS011;34357;51.948;6.132;2022-12-20T04:08:26;5.07;;;3.00;;
48578;SDS011;34357;51.948;6.132;2022-12-20T04:10:52;4.50;;;2.75;;
48578;SDS011;34357;51.948;6.132;2022-12-20T04:13:37;4.97;;;2.70;;
48578;SDS011;34357;51.948;6.132;2022-12-20T04:16:03;4.25;;;2.60;;
48578;SDS011;34357;51.948;6.132;2022-12-20T04:18:31;6.57;;;2.75;;
48578;SDS011;34357;51.948;6.132;2022-12-20T04:20:59;4.68;;;2.50;;
48578;SDS011;34357;51.948;6.132;2022-12-20T04:23:28;11.60;;;2.80;;
48578;SDS011;34357;51.948;6.132;2022-12-20T04:25:54;4.65;;;2.67;;
48578;SDS011;34357;51.948;6.132;2022-12-20T04:28:20;5.68;;;2.97;;
48578;SDS011;34357;51.948;6.132;2022-12-20T04:30:46;3.45;;;2.47;;
48578;SDS011;34357;51.948;6.132;2022-12-20T04:33:17;4.47;;;2.05;;
48578;SDS011;34357;51.948;6.132;2022-12-20T04:35:43;6.95;;;2.70;;
48578;SDS011;34357;51.948;6.132;2022-12-20T04:38:09;7.65;;;2.65;;
48578;SDS011;34357;51.948;6.132;2022-12-20T04:40:35;3.38;;;2.58;;
48578;SDS011;34357;51.948;6.132;2022-12-20T04:43:03;5.78;;;2.58;;
48578;SDS011;34357;51.948;6.132;2022-12-20T04:45:29;4.07;;;2.60;;
48578;SDS011;34357;51.948;6.132;2022-12-20T04:47:55;3.80;;;2.47;;
48578;SDS011;34357;51.948;6.132;2022-12-20T04:50:26;5.00;;;2.35;;
48578;SDS011;34357;51.948;6.132;2022-12-20T04:52:52;4.45;;;2.20;;
48578;SDS011;34357;51.948;6.132;2022-12-20T04:55:37;3.53;;;2.40;;
48578;SDS011;34357;51.948;6.132;2022-12-20T04:58:03;4.22;;;2.30;;
48578;SDS011;34357;51.948;6.132;2022-12-20T05:00:30;6.03;;;2.60;;
48578;SDS011;34357;51.948;6.132;2022-12-20T05:03:02;3.53;;;2.15;;
48578;SDS011;34357;51.948;6.132;2022-12-20T05:05:28;5.05;;;2.55;;
48578;SDS011;34357;51.948;6.132;2022-12-20T05:07:56;5.80;;;2.50;;
48578;SDS011;34357;51.948;6.132;2022-12-20T05:10:22;5.20;;;2.40;;
48578;SDS011;34357;51.948;6.132;2022-12-20T05:12:49;9.25;;;3.03;;
48578;SDS011;34357;51.948;6.132;2022-12-20T05:15:29;7.03;;;2.95;;
48578;SDS011;34357;51.948;6.132;2022-12-20T05:17:55;5.55;;;2.47;;
48578;SDS011;34357;51.948;6.132;2022-12-20T05:20:27;6.53;;;2.90;;
48578;SDS011;34357;51.948;6.132;2022-12-20T05:22:57;4.97;;;2.60;;
48578;SDS011;34357;51.948;6.132;2022-12-20T05:25:44;3.78;;;2.30;;
48578;SDS011;34357;51.948;6.132;2022-12-20T05:28:30;8.55;;;3.13;;
48578;SDS011;34357;51.948;6.132;2022-12-20T05:30:57;5.60;;;2.85;;
48578;SDS011;34357;51.948;6.132;2022-12-20T05:33:23;3.85;;;2.60;;
48578;SDS011;34357;51.948;6.132;2022-12-20T05:35:49;5.20;;;2.92;;
48578;SDS011;34357;51.948;6.132;2022-12-20T05:38:15;6.05;;;3.13;;
48578;SDS011;34357;51.948;6.132;2022-12-20T05:40:41;5.82;;;3.35;;
48578;SDS011;34357;51.948;6.132;2022-12-20T05:43:08;5.45;;;3.72;;
48578;SDS011;34357;51.948;6.132;2022-12-20T05:45:51;9.40;;;3.45;;
48578;SDS011;34357;51.948;6.132;2022-12-20T05:48:28;6.43;;;3.42;;
48578;SDS011;34357;51.948;6.132;2022-12-20T05:50:53;5.22;;;3.30;;
48578;SDS011;34357;51.948;6.132;2022-12-20T05:53:30;8.05;;;3.35;;
48578;SDS011;34357;51.948;6.132;2022-12-20T05:55:59;6.68;;;3.85;;
48578;SDS011;34357;51.948;6.132;2022-12-20T05:58:30;5.90;;;3.40;;
48578;SDS011;34357;51.948;6.132;2022-12-20T06:01:01;9.73;;;3.97;;
48578;SDS011;34357;51.948;6.132;2022-12-20T06:03:31;4.25;;;3.53;;
48578;SDS011;34357;51.948;6.132;2022-12-20T06:05:58;5.93;;;3.63;;
48578;SDS011;34357;51.948;6.132;2022-12-20T06:08:27;7.20;;;3.30;;
48578;SDS011;34357;51.948;6.132;2022-12-20T06:10:54;6.18;;;3.58;;
48578;SDS011;34357;51.948;6.132;2022-12-20T06:13:21;6.40;;;3.03;;
48578;SDS011;34357;51.948;6.132;2022-12-20T06:15:49;5.10;;;3.22;;
48578;SDS011;34357;51.948;6.132;2022-12-20T06:18:16;5.68;;;3.33;;
48578;SDS011;34357;51.948;6.132;2022-12-20T06:20:48;4.72;;;3.00;;
48578;SDS011;34357;51.948;6.132;2022-12-20T06:23:17;7.68;;;3.08;;
48578;SDS011;34357;51.948;6.132;2022-12-20T06:25:53;4.57;;;2.67;;
48578;SDS011;34357;51.948;6.132;2022-12-20T06:28:19;6.35;;;3.42;;
48578;SDS011;34357;51.948;6.132;2022-12-20T06:30:55;4.43;;;2.63;;
48578;SDS011;34357;51.948;6.132;2022-12-20T06:33:34;4.70;;;2.28;;
48578;SDS011;34357;51.948;6.132;2022-12-20T06:36:02;5.72;;;2.60;;
48578;SDS011;34357;51.948;6.132;2022-12-20T06:38:28;5.22;;;2.88;;
48578;SDS011;34357;51.948;6.132;2022-12-20T06:40:54;4.18;;;2.88;;
48578;SDS011;34357;51.948;6.132;2022-12-20T06:43:20;3.95;;;2.60;;
48578;SDS011;34357;51.948;6.132;2022-12-20T06:45:46;5.53;;;2.75;;
48578;SDS011;34357;51.948;6.132;2022-12-20T06:48:12;5.20;;;2.53;;
48578;SDS011;34357;51.948;6.132;2022-12-20T06:50:39;6.50;;;2.67;;
48578;SDS011;34357;51.948;6.132;2022-12-20T06:53:05;6.88;;;2.85;;
48578;SDS011;34357;51.948;6.132;2022-12-20T06:55:31;6.15;;;2.90;;
48578;SDS011;34357;51.948;6.132;2022-12-20T06:57:57;6.07;;;2.78;;
48578;SDS011;34357;51.948;6.132;2022-12-20T07:00:24;6.10;;;2.75;;
48578;SDS011;34357;51.948;6.132;2022-12-20T07:02:50;5.75;;;2.90;;
48578;SDS011;34357;51.948;6.132;2022-12-20T07:05:15;7.38;;;3.30;;
48578;SDS011;34357;51.948;6.132;2022-12-20T07:07:41;5.22;;;2.75;;
48578;SDS011;34357;51.948;6.132;2022-12-20T07:10:08;8.93;;;3.30;;
48578;SDS011;34357;51.948;6.132;2022-12-20T07:12:34;6.43;;;2.17;;
48578;SDS011;34357;51.948;6.132;2022-12-20T07:14:59;6.85;;;2.58;;
48578;SDS011;34357;51.948;6.132;2022-12-20T07:17:25;5.43;;;2.90;;
48578;SDS011;34357;51.948;6.132;2022-12-20T07:19:51;5.18;;;2.78;;
48578;SDS011;34357;51.948;6.132;2022-12-20T07:22:16;5.75;;;3.00;;
48578;SDS011;34357;51.948;6.132;2022-12-20T07:24:42;4.97;;;2.92;;
48578;SDS011;34357;51.948;6.132;2022-12-20T07:27:09;6.10;;;3.20;;
48578;SDS011;34357;51.948;6.132;2022-12-20T07:29:35;5.30;;;3.25;;
48578;SDS011;34357;51.948;6.132;2022-12-20T07:32:04;5.43;;;2.90;;
48578;SDS011;34357;51.948;6.132;2022-12-20T07:34:30;6.30;;;2.78;;
48578;SDS011;34357;51.948;6.132;2022-12-20T07:36:56;5.22;;;3.10;;
48578;SDS011;34357;51.948;6.132;2022-12-20T07:39:21;5.88;;;2.70;;
48578;SDS011;34357;51.948;6.132;2022-12-20T07:41:47;5.75;;;2.78;;
48578;SDS011;34357;51.948;6.132;2022-12-20T07:44:15;4.18;;;2.90;;
48578;SDS011;34357;51.948;6.132;2022-12-20T07:46:40;5.63;;;3.03;;
48578;SDS011;34357;51.948;6.132;2022-12-20T07:49:06;6.78;;;2.78;;
48578;SDS011;34357;51.948;6.132;2022-12-20T07:51:37;5.00;;;2.65;;
48578;SDS011;34357;51.948;6.132;2022-12-20T07:56:35;5.63;;;3.03;;
48578;SDS011;34357;51.948;6.132;2022-12-20T07:59:04;4.35;;;2.75;;
48578;SDS011;34357;51.948;6.132;2022-12-20T08:01:30;5.05;;;3.05;;
48578;SDS011;34357;51.948;6.132;2022-12-20T08:03:58;5.07;;;2.75;;
48578;SDS011;34357;51.948;6.132;2022-12-20T08:06:28;5.22;;;2.97;;
48578;SDS011;34357;51.948;6.132;2022-12-20T08:08:55;8.73;;;2.72;;
48578;SDS011;34357;51.948;6.132;2022-12-20T08:11:24;5.05;;;2.70;;
48578;SDS011;34357;51.948;6.132;2022-12-20T08:13:53;6.32;;;2.80;;
48578;SDS011;34357;51.948;6.132;2022-12-20T08:16:19;5.10;;;3.13;;
48578;SDS011;34357;51.948;6.132;2022-12-20T08:18:45;6.93;;;2.72;;
48578;SDS011;34357;51.948;6.132;2022-12-20T08:21:10;4.45;;;2.60;;
48578;SDS011;34357;51.948;6.132;2022-12-20T08:23:38;5.97;;;2.65;;
48578;SDS011;34357;51.948;6.132;2022-12-20T08:26:05;4.00;;;2.63;;
48578;SDS011;34357;51.948;6.132;2022-12-20T08:28:31;4.85;;;2.60;;
48578;SDS011;34357;51.948;6.132;2022-12-20T08:31:00;4.45;;;2.50;;
48578;SDS011;34357;51.948;6.132;2022-12-20T08:33:27;7.32;;;2.70;;
48578;SDS011;34357;51.948;6.132;2022-12-20T08:35:57;5.82;;;2.80;;
48578;SDS011;34357;51.948;6.132;2022-12-20T08:38:30;6.47;;;2.40;;
48578;SDS011;34357;51.948;6.132;2022-12-20T08:41:29;4.38;;;2.03;;
48578;SDS011;34357;51.948;6.132;2022-12-20T08:43:49;4.15;;;2.28;;
48578;SDS011;34357;51.948;6.132;2022-12-20T08:46:15;3.63;;;2.05;;
48578;SDS011;34357;51.948;6.132;2022-12-20T08:48:40;3.17;;;1.98;;
48578;SDS011;34357;51.948;6.132;2022-12-20T08:51:07;4.43;;;2.05;;
48578;SDS011;34357;51.948;6.132;2022-12-20T08:53:34;5.80;;;2.10;;
48578;SDS011;34357;51.948;6.132;2022-12-20T08:56:05;5.93;;;1.83;;
48578;SDS011;34357;51.948;6.132;2022-12-20T08:58:32;5.38;;;2.33;;
48578;SDS011;34357;51.948;6.132;2022-12-20T09:00:59;5.57;;;2.15;;
48578;SDS011;34357;51.948;6.132;2022-12-20T09:03:25;4.50;;;2.50;;
48578;SDS011;34357;51.948;6.132;2022-12-20T09:05:54;4.35;;;2.45;;
48578;SDS011;34357;51.948;6.132;2022-12-20T09:08:19;6.35;;;2.28;;
48578;SDS011;34357;51.948;6.132;2022-12-20T09:10:45;3.78;;;2.28;;
48578;SDS011;34357;51.948;6.132;2022-12-20T09:13:11;5.35;;;2.28;;
48578;SDS011;34357;51.948;6.132;2022-12-20T09:15:36;5.53;;;2.15;;
48578;SDS011;34357;51.948;6.132;2022-12-20T09:18:03;7.50;;;2.80;;
48578;SDS011;34357;51.948;6.132;2022-12-20T09:20:31;4.78;;;2.40;;
48578;SDS011;34357;51.948;6.132;2022-12-20T09:22:57;6.70;;;2.70;;
48578;SDS011;34357;51.948;6.132;2022-12-20T09:25:24;3.85;;;2.53;;
48578;SDS011;34357;51.948;6.132;2022-12-20T09:27:51;8.10;;;2.95;;
48578;SDS011;34357;51.948;6.132;2022-12-20T09:30:19;5.03;;;2.55;;
48578;SDS011;34357;51.948;6.132;2022-12-20T09:32:45;4.18;;;3.00;;
48578;SDS011;34357;51.948;6.132;2022-12-20T09:35:10;6.75;;;3.15;;
48578;SDS011;34357;51.948;6.132;2022-12-20T09:37:36;4.93;;;2.88;;
48578;SDS011;34357;51.948;6.132;2022-12-20T09:40:02;7.07;;;2.88;;
48578;SDS011;34357;51.948;6.132;2022-12-20T09:42:28;6.20;;;3.28;;
48578;SDS011;34357;51.948;6.132;2022-12-20T09:45:05;7.95;;;3.78;;
48578;SDS011;34357;51.948;6.132;2022-12-20T09:47:33;7.40;;;3.53;;
48578;SDS011;34357;51.948;6.132;2022-12-20T09:50:00;6.30;;;3.22;;
48578;SDS011;34357;51.948;6.132;2022-12-20T09:55:18;6.30;;;3.95;;
48578;SDS011;34357;51.948;6.132;2022-12-20T10:00:50;5.67;;;3.63;;
48578;SDS011;34357;51.948;6.132;2022-12-20T10:03:24;5.43;;;3.35;;
48578;SDS011;34357;51.948;6.132;2022-12-20T10:06:04;5.03;;;3.65;;
48578;SDS011;34357;51.948;6.132;2022-12-20T10:11:35;9.65;;;3.63;;
48578;SDS011;34357;51.948;6.132;2022-12-20T10:17:09;7.18;;;3.85;;
48578;SDS011;34357;51.948;6.132;2022-12-20T10:22:32;8.13;;;3.85;;
48578;SDS011;34357;51.948;6.132;2022-12-20T10:25:15;8.55;;;4.72;;
48578;SDS011;34357;51.948;6.132;2022-12-20T10:27:44;6.15;;;3.83;;
48578;SDS011;34357;51.948;6.132;2022-12-20T10:30:16;9.55;;;3.90;;
48578;SDS011;34357;51.948;6.132;2022-12-20T10:37:55;6.45;;;3.88;;
48578;SDS011;34357;51.948;6.132;2022-12-20T10:40:27;9.63;;;3.63;;
48578;SDS011;34357;51.948;6.132;2022-12-20T10:43:04;5.85;;;3.72;;
48578;SDS011;34357;51.948;6.132;2022-12-20T10:48:21;5.70;;;3.08;;
48578;SDS011;34357;51.948;6.132;2022-12-20T10:50:55;6.95;;;3.60;;
48578;SDS011;34357;51.948;6.132;2022-12-20T10:53:37;11.45;;;3.42;;
48578;SDS011;34357;51.948;6.132;2022-12-20T10:58:52;8.52;;;3.33;;
48578;SDS011;34357;51.948;6.132;2022-12-20T11:01:22;7.35;;;3.90;;
48578;SDS011;34357;51.948;6.132;2022-12-20T11:06:24;6.53;;;3.17;;
48578;SDS011;34357;51.948;6.132;2022-12-20T11:08:53;6.18;;;3.55;;
48578;SDS011;34357;51.948;6.132;2022-12-20T11:11:25;8.70;;;3.35;;
48578;SDS011;34357;51.948;6.132;2022-12-20T11:13:51;7.57;;;3.67;;
48578;SDS011;34357;51.948;6.132;2022-12-20T11:16:22;6.00;;;3.38;;
48578;SDS011;34357;51.948;6.132;2022-12-20T11:18:54;7.22;;;4.00;;
48578;SDS011;34357;51.948;6.132;2022-12-20T11:21:33;8.95;;;4.35;;
48578;SDS011;34357;51.948;6.132;2022-12-20T11:32:25;9.15;;;5.82;;
48578;SDS011;34357;51.948;6.132;2022-12-20T11:40:32;7.30;;;4.38;;
48578;SDS011;34357;51.948;6.132;2022-12-20T11:51:25;9.77;;;4.80;;
48578;SDS011;34357;51.948;6.132;2022-12-20T11:53:59;7.05;;;4.32;;
48578;SDS011;34357;51.948;6.132;2022-12-20T11:56:33;7.57;;;4.45;;
48578;SDS011;34357;51.948;6.132;2022-12-20T12:04:28;8.38;;;5.13;;
48578;SDS011;34357;51.948;6.132;2022-12-20T12:07:07;10.65;;;5.30;;
48578;SDS011;34357;51.948;6.132;2022-12-20T12:10:02;9.73;;;5.25;;
48578;SDS011;34357;51.948;6.132;2022-12-20T12:26:32;8.82;;;6.95;;
48578;SDS011;34357;51.948;6.132;2022-12-20T12:29:17;11.95;;;6.75;;
48578;SDS011;34357;51.948;6.132;2022-12-20T12:45:08;12.82;;;6.82;;
48578;SDS011;34357;51.948;6.132;2022-12-20T12:47:51;10.63;;;6.30;;
48578;SDS011;34357;51.948;6.132;2022-12-20T12:50:43;10.32;;;6.20;;
48578;SDS011;34357;51.948;6.132;2022-12-20T12:55:44;10.73;;;6.65;;
48578;SDS011;34357;51.948;6.132;2022-12-20T13:03:36;11.23;;;6.07;;
48578;SDS011;34357;51.948;6.132;2022-12-20T13:11:42;10.43;;;6.10;;
48578;SDS011;34357;51.948;6.132;2022-12-20T13:19:49;11.93;;;6.40;;
48578;SDS011;34357;51.948;6.132;2022-12-20T13:22:21;12.35;;;6.88;;
48578;SDS011;34357;51.948;6.132;2022-12-20T13:27:45;12.35;;;7.95;;
48578;SDS011;34357;51.948;6.132;2022-12-20T13:40:56;17.10;;;8.82;;
48578;SDS011;34357;51.948;6.132;2022-12-20T13:43:25;12.65;;;9.68;;
48578;SDS011;34357;51.948;6.132;2022-12-20T13:46:01;14.18;;;10.43;;
48578;SDS011;34357;51.948;6.132;2022-12-20T13:51:23;14.32;;;12.00;;
48578;SDS011;34357;51.948;6.132;2022-12-20T13:53:54;21.05;;;12.55;;
48578;SDS011;34357;51.948;6.132;2022-12-20T13:59:06;18.83;;;12.57;;
48578;SDS011;34357;51.948;6.132;2022-12-20T14:01:51;18.13;;;12.52;;
48578;SDS011;34357;51.948;6.132;2022-12-20T14:04:19;20.08;;;11.55;;
48578;SDS011;34357;51.948;6.132;2022-12-20T14:06:53;17.25;;;11.35;;
48578;SDS011;34357;51.948;6.132;2022-12-20T14:09:26;16.23;;;11.02;;
48578;SDS011;34357;51.948;6.132;2022-12-20T14:12:14;16.67;;;10.63;;
48578;SDS011;34357;51.948;6.132;2022-12-20T14:14:45;17.17;;;11.27;;
48578;SDS011;34357;51.948;6.132;2022-12-20T14:22:51;15.65;;;10.73;;
48578;SDS011;34357;51.948;6.132;2022-12-20T14:25:29;14.98;;;11.23;;
48578;SDS011;34357;51.948;6.132;2022-12-20T14:30:59;13.70;;;10.15;;
48578;SDS011;34357;51.948;6.132;2022-12-20T14:36:06;15.23;;;11.18;;
48578;SDS011;34357;51.948;6.132;2022-12-20T14:38:42;12.50;;;10.90;;
48578;SDS011;34357;51.948;6.132;2022-12-20T14:44:11;19.55;;;13.40;;
48578;SDS011;34357;51.948;6.132;2022-12-20T14:46:45;17.67;;;13.70;;
48578;SDS011;34357;51.948;6.132;2022-12-20T14:51:46;18.77;;;13.35;;
48578;SDS011;34357;51.948;6.132;2022-12-20T14:54:20;18.10;;;12.77;;
48578;SDS011;34357;51.948;6.132;2022-12-20T14:56:49;19.10;;;13.65;;
48578;SDS011;34357;51.948;6.132;2022-12-20T14:59:17;18.77;;;14.30;;
48578;SDS011;34357;51.948;6.132;2022-12-20T15:01:51;19.38;;;15.55;;
48578;SDS011;34357;51.948;6.132;2022-12-20T15:04:22;15.23;;;11.70;;
48578;SDS011;34357;51.948;6.132;2022-12-20T15:06:54;17.13;;;12.73;;
48578;SDS011;34357;51.948;6.132;2022-12-20T15:09:20;19.42;;;13.30;;
48578;SDS011;34357;51.948;6.132;2022-12-20T15:11:45;10.88;;;9.73;;
48578;SDS011;34357;51.948;6.132;2022-12-20T15:16:47;15.40;;;12.02;;
48578;SDS011;34357;51.948;6.132;2022-12-20T15:19:13;15.93;;;13.18;;
48578;SDS011;34357;51.948;6.132;2022-12-20T15:21:39;17.73;;;15.40;;
48578;SDS011;34357;51.948;6.132;2022-12-20T15:26:41;18.98;;;14.48;;
48578;SDS011;34357;51.948;6.132;2022-12-20T15:29:11;17.75;;;13.68;;
48578;SDS011;34357;51.948;6.132;2022-12-20T15:31:44;18.17;;;14.20;;
48578;SDS011;34357;51.948;6.132;2022-12-20T15:34:17;19.10;;;17.08;;
48578;SDS011;34357;51.948;6.132;2022-12-20T15:36:44;17.58;;;14.52;;
48578;SDS011;34357;51.948;6.132;2022-12-20T15:39:10;17.98;;;16.08;;
48578;SDS011;34357;51.948;6.132;2022-12-20T15:41:37;18.70;;;16.80;;
48578;SDS011;34357;51.948;6.132;2022-12-20T15:44:06;16.08;;;14.40;;
48578;SDS011;34357;51.948;6.132;2022-12-20T15:46:38;19.20;;;16.27;;
48578;SDS011;34357;51.948;6.132;2022-12-20T15:49:04;18.05;;;16.23;;
48578;SDS011;34357;51.948;6.132;2022-12-20T15:51:30;21.63;;;17.55;;
48578;SDS011;34357;51.948;6.132;2022-12-20T15:53:57;22.55;;;18.23;;
48578;SDS011;34357;51.948;6.132;2022-12-20T15:56:24;19.23;;;16.75;;
48578;SDS011;34357;51.948;6.132;2022-12-20T15:58:51;21.60;;;18.73;;
48578;SDS011;34357;51.948;6.132;2022-12-20T16:01:19;22.88;;;16.92;;
48578;SDS011;34357;51.948;6.132;2022-12-20T16:03:48;20.85;;;15.65;;
48578;SDS011;34357;51.948;6.132;2022-12-20T16:06:14;16.38;;;13.30;;
48578;SDS011;34357;51.948;6.132;2022-12-20T16:08:40;15.38;;;12.70;;
48578;SDS011;34357;51.948;6.132;2022-12-20T16:11:06;16.80;;;13.10;;
48578;SDS011;34357;51.948;6.132;2022-12-20T16:13:51;14.80;;;13.20;;
48578;SDS011;34357;51.948;6.132;2022-12-20T16:16:19;16.88;;;14.25;;
48578;SDS011;34357;51.948;6.132;2022-12-20T16:18:50;16.83;;;14.80;;
48578;SDS011;34357;51.948;6.132;2022-12-20T16:21:19;16.75;;;14.35;;
48578;SDS011;34357;51.948;6.132;2022-12-20T16:23:46;17.88;;;15.57;;
48578;SDS011;34357;51.948;6.132;2022-12-20T16:26:13;23.17;;;18.80;;
48578;SDS011;34357;51.948;6.132;2022-12-20T16:28:40;19.80;;;15.75;;
48578;SDS011;34357;51.948;6.132;2022-12-20T16:31:26;22.17;;;17.65;;
48578;SDS011;34357;51.948;6.132;2022-12-20T16:33:57;20.50;;;15.80;;
48578;SDS011;34357;51.948;6.132;2022-12-20T16:36:24;20.85;;;18.58;;
48578;SDS011;34357;51.948;6.132;2022-12-20T16:38:51;20.10;;;16.63;;
48578;SDS011;34357;51.948;6.132;2022-12-20T16:41:18;18.13;;;15.40;;
48578;SDS011;34357;51.948;6.132;2022-12-20T16:43:45;24.15;;;16.67;;
48578;SDS011;34357;51.948;6.132;2022-12-20T16:46:12;19.77;;;17.52;;
48578;SDS011;34357;51.948;6.132;2022-12-20T16:48:40;19.30;;;16.52;;
48578;SDS011;34357;51.948;6.132;2022-12-20T16:54:00;20.02;;;15.68;;
48578;SDS011;34357;51.948;6.132;2022-12-20T16:56:27;16.65;;;14.52;;
48578;SDS011;34357;51.948;6.132;2022-12-20T16:58:54;19.90;;;14.15;;
48578;SDS011;34357;51.948;6.132;2022-12-20T17:01:43;17.42;;;10.95;;
48578;SDS011;34357;51.948;6.132;2022-12-20T17:04:10;16.75;;;13.50;;
48578;SDS011;34357;51.948;6.132;2022-12-20T17:06:38;19.83;;;14.00;;
48578;SDS011;34357;51.948;6.132;2022-12-20T17:09:04;16.90;;;13.60;;
48578;SDS011;34357;51.948;6.132;2022-12-20T17:11:30;17.05;;;14.68;;
48578;SDS011;34357;51.948;6.132;2022-12-20T17:13:56;23.15;;;15.88;;
48578;SDS011;34357;51.948;6.132;2022-12-20T17:16:23;15.55;;;13.68;;
48578;SDS011;34357;51.948;6.132;2022-12-20T17:18:50;15.15;;;13.38;;
48578;SDS011;34357;51.948;6.132;2022-12-20T17:23:44;15.20;;;12.57;;
48578;SDS011;34357;51.948;6.132;2022-12-20T17:26:13;24.27;;;18.65;;
48578;SDS011;34357;51.948;6.132;2022-12-20T17:28:40;22.08;;;17.20;;
48578;SDS011;34357;51.948;6.132;2022-12-20T17:33:55;25.25;;;18.48;;
48578;SDS011;34357;51.948;6.132;2022-12-20T17:36:22;24.15;;;18.15;;
48578;SDS011;34357;51.948;6.132;2022-12-20T17:38:48;19.63;;;16.80;;
48578;SDS011;34357;51.948;6.132;2022-12-20T17:41:24;23.88;;;18.33;;